Time;durP1;ratioP1;P1;durP2;ratioP2;P2;SDS_P1;SDS_P2;PMS_P1;PMS_P2;Temp;Humidity;BMP_temperature;BMP_pressure;BME280_temperature;BME280_humidity;BME280_pressure;Samples;Min_cycle;Max_cycle;Signal;HPM_P1;HPM_P2
2021/11/04 05:02:16;;;;;;;;;24.50;22.75;;;;;7.62;72.83;100427.97;5007603;28;46723;-96
2021/11/04 05:04:42;;;;;;;;;22.00;21.00;;;;;7.49;72.96;100409.03;4975777;28;46067;-96
2021/11/04 05:07:07;;;;;;;;;29.00;24.75;;;;;7.48;73.15;100408.13;4965619;28;46134;-96
2021/11/04 05:09:33;;;;;;;;;21.75;17.75;;;;;7.53;73.31;100418.81;4959659;28;45775;-96
2021/11/04 05:11:58;;;;;;;;;24.25;22.50;;;;;7.58;73.27;100421.66;4955480;28;44920;-96
2021/11/04 05:14:23;;;;;;;;;26.50;24.75;;;;;7.49;73.09;100407.31;4963358;28;56357;-96
2021/11/04 05:16:49;;;;;;;;;18.75;14.00;;;;;7.49;73.66;100403.81;4962688;28;44690;-96
2021/11/04 05:19:20;;;;;;;;;19.25;16.75;;;;;7.49;73.44;100409.94;4964396;28;45274;-96
2021/11/04 05:21:46;;;;;;;;;24.25;18.50;;;;;7.49;73.79;100416.88;4981055;23;44922;-96
2021/11/04 05:24:12;;;;;;;;;20.75;16.00;;;;;7.60;73.53;100436.59;4936645;28;47540;-96
2021/11/04 05:29:29;;;;;;;;;18.25;17.75;;;;;7.51;73.84;100420.44;5232186;23;45941;-96
2021/11/04 05:31:55;;;;;;;;;25.00;18.25;;;;;7.54;74.00;100431.06;4947704;28;44935;-96
2021/11/04 05:34:27;;;;;;;;;18.00;17.25;;;;;7.50;73.65;100423.88;4944953;28;47398;-96
2021/11/04 05:36:53;;;;;;;;;21.75;19.25;;;;;7.57;73.63;100428.63;4954852;28;44796;-96
2021/11/04 05:39:18;;;;;;;;;21.00;19.75;;;;;7.62;73.90;100446.25;4948233;28;44744;-96
2021/11/04 05:42:11;;;;;;;;;18.25;18.25;;;;;7.65;74.05;100439.47;4997672;28;45258;-96
2021/11/04 05:44:40;;;;;;;;;23.00;23.00;;;;;7.64;73.96;100434.16;4962407;28;46561;-96
2021/11/04 05:47:07;;;;;;;;;20.25;18.00;;;;;7.71;74.09;100451.94;4946646;28;44829;-96
2021/11/04 05:49:33;;;;;;;;;16.75;16.75;;;;;7.64;74.02;100439.38;4980391;28;44836;-96
2021/11/04 05:51:58;;;;;;;;;21.00;19.75;;;;;7.65;74.18;100436.88;4952708;28;44793;-96
2021/11/04 05:54:24;;;;;;;;;18.50;18.25;;;;;7.67;74.02;100443.06;4963908;28;46895;-96
2021/11/04 05:56:51;;;;;;;;;22.00;17.75;;;;;7.69;74.77;100446.66;4962486;28;44796;-96
2021/11/04 05:59:16;;;;;;;;;21.50;21.25;;;;;7.68;74.80;100436.13;4976391;28;44777;-96
2021/11/04 06:01:46;;;;;;;;;22.50;19.00;;;;;7.69;74.38;100440.53;4949047;28;44765;-96
2021/11/04 06:04:25;;;;;;;;;22.75;22.75;;;;;7.70;74.29;100440.63;4966985;28;45628;-96
2021/11/04 06:06:51;;;;;;;;;24.25;23.00;;;;;7.68;74.24;100433.50;4983831;28;44688;-96
2021/11/04 06:09:16;;;;;;;;;24.00;18.25;;;;;7.70;74.24;100434.50;4958329;28;45300;-96
2021/11/04 06:11:42;;;;;;;;;24.00;22.00;;;;;7.73;74.40;100446.81;4974299;28;45239;-96
2021/11/04 06:14:08;;;;;;;;;21.00;19.75;;;;;7.70;74.33;100442.31;4946569;28;47446;-96
2021/11/04 06:16:36;;;;;;;;;21.25;15.00;;;;;7.68;74.35;100442.22;4926739;28;44796;-96
2021/11/04 06:21:42;;;;;;;;;27.50;21.25;;;;;7.75;74.18;100456.53;5034756;23;44900;-96
2021/11/04 06:24:07;;;;;;;;;25.50;19.50;;;;;7.80;74.49;100462.00;4935285;28;47074;-96
2021/11/04 06:26:32;;;;;;;;;29.00;23.00;;;;;7.92;74.40;100473.06;4916152;28;45375;-96
2021/11/04 06:28:59;;;;;;;;;23.50;21.50;;;;;7.97;74.66;100473.31;4918982;28;44749;-96
2021/11/04 06:31:25;;;;;;;;;25.75;21.25;;;;;7.91;74.32;100459.94;4922799;28;44869;-96
2021/11/04 06:33:50;;;;;;;;;19.75;17.75;;;;;7.94;74.41;100452.22;4933479;28;45713;-96
2021/11/04 06:36:16;;;;;;;;;20.25;18.50;;;;;8.04;74.30;100467.56;4923618;28;45460;-96
2021/11/04 06:38:41;;;;;;;;;24.25;18.75;;;;;8.08;74.17;100472.97;4950217;28;44787;-96
2021/11/04 06:41:10;;;;;;;;;18.75;15.75;;;;;8.03;73.92;100462.28;4918540;28;45611;-96
2021/11/04 06:43:36;;;;;;;;;21.00;18.00;;;;;8.11;73.99;100479.25;4917622;28;47555;-96
2021/11/04 06:46:02;;;;;;;;;18.00;17.25;;;;;8.10;74.19;100479.16;4934103;28;45388;-96
2021/11/04 06:48:43;;;;;;;;;22.00;18.50;;;;;8.23;74.44;100492.06;4929921;28;45495;-96
2021/11/04 06:51:12;;;;;;;;;19.50;14.75;;;;;8.19;73.94;100487.50;4934866;28;47741;-96
2021/11/04 06:53:42;;;;;;;;;17.50;15.00;;;;;8.23;74.32;100489.44;4940480;28;47278;-96
2021/11/04 06:56:08;;;;;;;;;18.25;16.75;;;;;8.21;74.16;100487.56;4940501;28;45414;-96
2021/11/04 06:58:33;;;;;;;;;21.25;17.75;;;;;8.23;74.35;100489.44;4936877;28;45345;-96
2021/11/04 07:00:59;;;;;;;;;18.00;17.25;;;;;8.35;74.13;100509.19;4933698;28;44860;-96
2021/11/04 07:03:28;;;;;;;;;20.00;14.00;;;;;8.29;74.12;100501.03;4961117;28;47030;-96
2021/11/04 07:06:23;;;;;;;;;21.00;20.25;;;;;8.25;74.26;100494.72;4921294;28;45270;-96
2021/11/04 07:08:54;;;;;;;;;17.25;14.00;;;;;8.25;73.92;100497.34;4927305;28;45464;-96
2021/11/04 07:11:20;;;;;;;;;18.00;13.67;;;;;8.26;74.19;100497.44;4936819;28;44888;-96
2021/11/04 07:13:48;;;;;;;;;17.00;15.25;;;;;8.39;73.84;100516.38;4935715;28;46379;-96
2021/11/04 07:16:42;;;;;;;;;17.00;15.25;;;;;8.47;74.35;100530.72;4954745;28;45063;-96
2021/11/04 07:19:20;;;;;;;;;17.33;15.00;;;;;8.43;74.30;100507.84;4962821;28;44790;-96
2021/11/04 07:21:55;;;;;;;;;17.33;17.33;;;;;8.43;74.11;100515.69;4960708;28;46222;-96
2021/11/04 07:24:32;;;;;;;;;14.75;14.25;;;;;8.50;74.11;100524.75;4967953;28;45605;-96
2021/11/04 07:27:07;;;;;;;;;18.00;14.50;;;;;8.65;74.01;100535.13;4970463;28;45402;-84
2021/11/04 07:29:34;;;;;;;;;17.33;14.67;;;;;8.68;73.98;100540.53;4954838;28;45537;-84
2021/11/04 07:31:59;;;;;;;;;13.67;11.67;;;;;8.68;74.26;100539.63;4940987;28;45525;-83
2021/11/04 07:34:25;;;;;;;;;20.67;17.33;;;;;8.76;74.20;100550.47;4939356;28;45504;-83
2021/11/04 07:36:50;;;;;;;;;19.00;14.67;;;;;8.76;73.83;100559.19;4952343;28;54500;-84
2021/11/04 07:39:15;;;;;;;;;17.00;12.33;;;;;8.79;74.44;100553.22;4937433;28;45634;-83
2021/11/04 07:41:41;;;;;;;;;15.00;11.67;;;;;8.87;74.13;100575.44;4975228;28;45426;-83
2021/11/04 07:44:06;;;;;;;;;17.33;15.33;;;;;8.88;74.30;100569.38;4969090;28;45423;-84
2021/11/04 07:46:32;;;;;;;;;16.00;15.50;;;;;8.94;73.74;100568.81;4952442;28;69318;-83
2021/11/04 07:48:59;;;;;;;;;17.67;14.33;;;;;8.97;73.96;100579.41;4976750;28;62044;-84
2021/11/04 07:51:25;;;;;;;;;16.00;15.00;;;;;8.99;74.24;100585.63;4975489;28;45458;-84
2021/11/04 07:53:50;;;;;;;;;12.00;12.00;;;;;9.00;73.72;100578.66;4953183;28;64491;-84
2021/11/04 07:56:15;;;;;;;;;15.67;15.00;;;;;9.08;73.69;100589.50;4971863;28;62889;-84
2021/11/04 07:58:41;;;;;;;;;16.00;12.33;;;;;9.16;73.47;100598.63;4953829;28;60326;-84
2021/11/04 08:01:06;;;;;;;;;15.33;13.33;;;;;9.22;73.42;100598.06;4968967;28;45606;-84
2021/11/04 08:03:32;;;;;;;;;20.67;16.67;;;;;9.26;72.70;100595.66;4975080;28;72137;-84
2021/11/04 08:05:57;;;;;;;;;10.00;10.00;;;;;9.29;72.85;100602.75;4978285;28;45853;-85
2021/11/04 08:08:23;;;;;;;;;18.00;13.33;;;;;9.26;72.92;100597.38;4971346;28;66269;-85
2021/11/04 08:10:51;;;;;;;;;19.33;16.00;;;;;9.30;72.98;100587.94;4978881;28;63144;-85
2021/11/04 08:13:17;;;;;;;;;16.50;14.00;;;;;9.35;73.14;100610.91;4973552;28;45626;-84
2021/11/04 08:15:42;;;;;;;;;13.00;10.33;;;;;9.39;72.96;100612.84;4976271;28;45554;-85
2021/11/04 08:18:08;;;;;;;;;16.00;11.33;;;;;9.46;72.71;100615.75;4978408;28;46018;-84
2021/11/04 08:20:33;;;;;;;;;12.33;12.33;;;;;9.48;72.18;100616.75;4977462;28;45657;-85
2021/11/04 08:22:59;;;;;;;;;14.00;11.00;;;;;9.51;72.55;100616.88;4967326;28;50425;-84
2021/11/04 08:25:24;;;;;;;;;13.67;10.00;;;;;9.54;72.09;100613.50;4957084;28;45535;-84
2021/11/04 08:27:50;;;;;;;;;12.67;11.00;;;;;9.60;72.93;100622.56;4964228;28;45407;-84
2021/11/04 08:30:16;;;;;;;;;15.67;11.33;;;;;9.64;72.42;100625.34;4977479;28;66461;-84
2021/11/04 08:32:42;;;;;;;;;13.67;12.00;;;;;9.66;72.08;100621.06;4976118;28;45611;-82
2021/11/04 08:35:08;;;;;;;;;13.67;9.33;;;;;9.65;71.96;100621.88;4960022;28;46377;-84
2021/11/04 08:37:34;;;;;;;;;15.33;11.33;;;;;9.67;71.95;100634.22;4967330;28;54870;-84
2021/11/04 08:39:59;;;;;;;;;11.67;10.67;;;;;9.70;72.27;100643.97;4955892;28;45569;-84
2021/11/04 08:42:25;;;;;;;;;12.00;9.33;;;;;9.68;72.04;100641.28;4967024;28;75438;-84
2021/11/04 08:44:51;;;;;;;;;14.33;11.00;;;;;9.60;71.92;100640.91;4970758;28;45571;-84
2021/11/04 08:47:16;;;;;;;;;11.00;9.00;;;;;9.60;71.97;100650.50;4971426;28;45307;-84
2021/11/04 08:49:41;;;;;;;;;12.33;10.67;;;;;9.58;71.77;100644.28;4969966;28;58838;-84
2021/11/04 08:52:08;;;;;;;;;11.00;10.00;;;;;9.61;72.02;100655.78;4952667;28;47531;-84
2021/11/04 08:54:34;;;;;;;;;10.00;10.00;;;;;9.67;71.77;100651.66;4952513;28;45500;-86
2021/11/04 08:56:59;;;;;;;;;15.67;10.00;;;;;9.71;72.19;100654.53;4955645;28;45685;-86
2021/11/04 08:59:25;;;;;;;;;14.00;11.33;;;;;9.88;72.17;100654.41;4966892;28;59910;-83
2021/11/04 09:01:50;;;;;;;;;9.67;7.67;;;;;10.07;72.66;100660.53;4950701;28;45857;-84
2021/11/04 09:04:15;;;;;;;;;11.67;9.33;;;;;10.36;71.92;100657.44;4969819;28;45555;-85
2021/11/04 09:06:41;;;;;;;;;8.00;8.00;;;;;10.60;71.55;100662.00;4950765;28;65740;-85
2021/11/04 09:09:10;;;;;;;;;7.33;6.67;;;;;10.80;71.16;100665.47;4959820;28;45525;-85
2021/11/04 09:11:36;;;;;;;;;9.67;7.00;;;;;10.87;70.04;100652.63;4960539;28;46584;-85
2021/11/04 09:14:01;;;;;;;;;9.33;8.00;;;;;10.98;70.51;100659.22;4985553;28;45567;-84
2021/11/04 09:16:28;;;;;;;;;6.67;6.67;;;;;11.15;70.39;100661.66;4957888;28;45338;-84
2021/11/04 09:18:54;;;;;;;;;6.00;4.33;;;;;11.27;70.27;100669.16;4974441;28;45623;-84
2021/11/04 09:21:20;;;;;;;;;8.33;7.67;;;;;11.32;69.45;100671.97;4974626;28;75339;-85
2021/11/04 09:23:45;;;;;;;;;10.33;4.00;;;;;11.39;68.90;100684.53;4954833;28;45494;-85
2021/11/04 09:26:10;;;;;;;;;4.67;3.67;;;;;11.42;69.08;100673.22;4972996;28;45865;-84
2021/11/04 09:28:36;;;;;;;;;6.00;4.67;;;;;11.43;69.06;100675.94;4968253;28;45549;-85
2021/11/04 09:31:01;;;;;;;;;3.00;3.00;;;;;11.51;68.71;100686.75;4952999;28;53364;-85
2021/11/04 09:33:26;;;;;;;;;4.33;4.33;;;;;11.44;68.27;100687.34;4950469;28;66341;-84
2021/11/04 09:35:52;;;;;;;;;3.00;3.00;;;;;11.33;67.11;100679.94;4952254;28;68761;-85
2021/11/04 09:38:17;;;;;;;;;4.00;3.67;;;;;11.33;67.68;100698.31;4971516;28;45947;-85
2021/11/04 09:40:43;;;;;;;;;3.00;3.00;;;;;11.27;67.77;100703.31;4948765;28;68671;-84
2021/11/04 09:43:08;;;;;;;;;3.00;3.00;;;;;11.25;68.11;100697.09;4965597;28;71830;-85
2021/11/04 09:45:33;;;;;;;;;4.00;4.00;;;;;11.25;67.72;100707.59;4955913;28;65279;-85
2021/11/04 09:47:59;;;;;;;;;2.00;2.00;;;;;11.22;67.69;100700.50;4970668;28;45553;-84
2021/11/04 09:50:24;;;;;;;;;3.00;3.00;;;;;11.27;67.59;100704.22;4970987;28;46303;-84
2021/11/04 09:52:54;;;;;;;;;3.67;3.00;;;;;11.27;67.69;100706.84;4971857;28;63005;-83
2021/11/04 09:55:21;;;;;;;;;5.67;3.00;;;;;11.20;67.32;100701.25;4967228;28;45476;-84
2021/11/04 09:57:46;;;;;;;;;7.00;4.33;;;;;11.13;67.11;100703.63;4955218;28;45739;-84
2021/11/04 10:00:12;;;;;;;;;3.33;3.33;;;;;11.18;67.74;100701.22;4946600;28;45702;-84
2021/11/04 10:02:41;;;;;;;;;4.00;4.00;;;;;11.22;67.04;100703.13;4971050;28;48903;-83
2021/11/04 10:05:07;;;;;;;;;5.67;3.00;;;;;11.31;67.62;100717.47;4961025;28;45420;-85
2021/11/04 10:07:43;;;;;;;;;6.00;4.00;;;;;11.44;67.47;100714.50;4959531;28;45677;-83
2021/11/04 10:10:08;;;;;;;;;3.67;2.67;;;;;11.66;67.31;100717.13;4943353;28;47704;-84
2021/11/04 10:12:34;;;;;;;;;6.33;4.67;;;;;11.81;66.55;100707.22;4943197;28;45550;-84
2021/11/04 10:15:13;;;;;;;;;2.33;2.33;;;;;11.98;66.59;100716.63;4962030;28;45635;-84
2021/11/04 10:17:38;;;;;;;;;4.00;4.00;;;;;12.13;66.46;100714.63;4971747;28;45548;-84
2021/11/04 10:20:21;;;;;;;;;3.67;3.67;;;;;12.23;65.73;100718.50;4973319;28;45926;-84
2021/11/04 10:23:03;;;;;;;;;3.00;3.00;;;;;12.33;65.87;100722.38;4974115;28;45465;-84
2021/11/04 10:25:29;;;;;;;;;2.00;2.00;;;;;12.32;65.31;100719.69;4975843;28;45417;-85
2021/11/04 10:27:54;;;;;;;;;4.67;2.00;;;;;12.25;64.59;100727.34;4962790;28;45730;-84
2021/11/04 10:30:38;;;;;;;;;3.67;2.00;;;;;12.16;64.02;100730.50;4978613;28;59011;-84
2021/11/04 10:33:30;;;;;;;;;2.33;2.33;;;;;12.04;63.87;100733.53;4962174;28;45560;-84
2021/11/04 10:36:13;;;;;;;;;2.33;2.00;;;;;11.91;64.74;100728.63;4970207;28;45425;-84
2021/11/04 10:38:48;;;;;;;;;2.67;2.67;;;;;12.15;65.49;100731.38;4951537;28;46153;-84
2021/11/04 10:41:27;;;;;;;;;6.00;3.67;;;;;12.43;63.51;100727.97;4973476;28;45425;-85
2021/11/04 10:44:06;;;;;;;;;3.00;2.67;;;;;12.57;63.81;100721.50;4961690;28;45364;-84
2021/11/04 10:46:39;;;;;;;;;3.67;3.00;;;;;12.73;63.63;100717.66;4961997;28;45350;-84
2021/11/04 10:49:05;;;;;;;;;2.67;2.67;;;;;12.78;63.21;100728.38;4956966;28;45465;-84
2021/11/04 10:51:31;;;;;;;;;3.00;2.33;;;;;12.84;63.74;100732.97;4955006;28;45482;-85
2021/11/04 10:54:08;;;;;;;;;3.00;3.00;;;;;12.90;62.48;100737.56;4968690;28;46172;-84
2021/11/04 10:56:38;;;;;;;;;2.67;2.67;;;;;12.91;62.71;100728.84;4972556;28;45412;-84
2021/11/04 10:59:09;;;;;;;;;2.00;2.00;;;;;12.85;62.44;100732.13;4955086;28;45557;-85
2021/11/04 11:01:42;;;;;;;;;4.00;2.33;;;;;12.85;62.33;100743.56;4966297;28;45905;-85
2021/11/04 11:04:21;;;;;;;;;3.00;3.00;;;;;12.84;62.42;100735.59;4969051;28;45510;-84
2021/11/04 11:06:52;;;;;;;;;3.00;3.00;;;;;12.77;62.12;100734.50;4963166;28;45457;-84
2021/11/04 11:09:23;;;;;;;;;4.67;3.00;;;;;12.69;61.97;100751.75;4969943;28;45373;-84
2021/11/04 11:11:58;;;;;;;;;2.00;2.00;;;;;12.48;62.02;100751.00;4951959;28;45641;-84
2021/11/04 11:14:27;;;;;;;;;5.33;3.33;;;;;12.31;62.33;100749.47;4970193;28;45467;-84
2021/11/04 11:16:55;;;;;;;;;4.33;3.00;;;;;12.20;62.88;100760.47;4956465;28;45639;-84
2021/11/04 11:19:28;;;;;;;;;4.00;4.00;;;;;12.11;61.94;100754.84;4969105;28;45431;-84
2021/11/04 11:21:53;;;;;;;;;3.00;3.00;;;;;12.27;63.24;100770.41;4971787;28;45817;-84
2021/11/04 11:24:29;;;;;;;;;6.00;3.00;;;;;12.48;63.23;100758.00;4969678;28;45465;-84
2021/11/04 11:26:55;;;;;;;;;3.00;3.00;;;;;12.67;63.46;100764.88;4961190;28;45501;-84
2021/11/04 11:29:20;;;;;;;;;4.00;2.00;;;;;12.89;62.84;100759.47;4961219;28;45865;-83
2021/11/04 11:31:48;;;;;;;;;4.00;3.00;;;;;13.07;62.50;100761.88;4954688;28;46747;-83
2021/11/04 11:34:20;;;;;;;;;3.00;3.00;;;;;13.15;62.41;100768.31;4951578;28;45468;-83
2021/11/04 11:37:15;;;;;;;;;3.00;2.33;;;;;13.22;62.41;100771.19;4968997;28;45781;-89
2021/11/04 11:39:43;;;;;;;;;3.00;3.00;;;;;13.18;60.56;100775.44;4960040;28;45570;-88
2021/11/04 11:42:13;;;;;;;;;6.33;5.33;;;;;13.13;62.01;100775.28;4961229;28;45585;-88
2021/11/04 11:44:51;;;;;;;;;4.50;4.50;;;;;13.23;62.61;100776.50;4940436;28;45381;-88
2021/11/04 11:47:21;;;;;;;;;3.67;3.67;;;;;13.24;60.78;100774.75;4952596;28;45386;-85
2021/11/04 11:49:47;;;;;;;;;3.00;3.00;;;;;13.15;61.37;100785.84;4953777;28;45451;-83
2021/11/04 11:52:41;;;;;;;;;3.67;3.00;;;;;12.93;60.95;100791.28;4966616;28;45397;-83
2021/11/04 11:55:07;;;;;;;;;5.33;3.00;;;;;12.69;60.89;100791.25;4956718;28;45773;-84
2021/11/04 11:57:34;;;;;;;;;2.00;2.00;;;;;12.53;60.84;100793.31;4954866;28;45559;-83
2021/11/04 11:59:59;;;;;;;;;3.00;3.00;;;;;12.48;61.37;100794.88;4953745;28;45408;-84
2021/11/04 12:02:34;;;;;;;;;3.33;3.33;;;;;12.55;61.60;100796.00;4966050;28;69991;-83
2021/11/04 12:05:37;;;;;;;;;4.00;4.00;;;;;12.51;61.81;100798.53;4952788;28;45427;-83
2021/11/04 12:08:08;;;;;;;;;1.00;1.00;;;;;12.43;61.90;100807.84;4977690;28;45341;-86
2021/11/04 12:10:37;;;;;;;;;4.67;4.67;;;;;12.33;62.52;100793.44;4971051;28;45667;-86
2021/11/04 12:13:02;;;;;;;;;3.00;3.00;;;;;12.32;62.92;100801.28;4943977;28;46248;-86
2021/11/04 12:15:29;;;;;;;;;2.00;2.00;;;;;12.26;61.61;100800.22;4963965;28;45541;-86
2021/11/04 12:18:17;;;;;;;;;1.00;1.00;;;;;12.15;62.36;100805.03;4980818;28;45515;-87
2021/11/04 12:20:53;;;;;;;;;2.00;2.00;;;;;12.04;62.01;100799.31;4949558;28;45410;-86
2021/11/04 12:23:19;;;;;;;;;2.00;2.00;;;;;11.95;60.74;100794.59;4934593;28;45541;-88
2021/11/04 12:25:46;;;;;;;;;2.00;1.00;;;;;11.91;62.02;100804.91;4916838;28;47830;-88
2021/11/04 12:28:11;;;;;;;;;1.33;1.00;;;;;11.89;62.12;100807.47;4931688;28;45704;-87
2021/11/04 12:30:36;;;;;;;;;1.00;0.67;;;;;11.96;62.55;100819.13;4964136;28;45547;-85
2021/11/04 12:33:07;;;;;;;;;2.33;2.00;;;;;11.91;62.44;100800.53;4952098;28;74338;-85
2021/11/04 12:35:47;;;;;;;;;2.33;2.33;;;;;12.03;63.51;100809.78;4956904;28;45444;-86
2021/11/04 12:38:29;;;;;;;;;3.00;3.00;;;;;12.18;62.80;100806.91;4951242;28;45550;-85
2021/11/04 12:41:15;;;;;;;;;2.67;1.67;;;;;12.40;61.78;100805.09;4972241;28;45369;-85
2021/11/04 12:43:40;;;;;;;;;2.00;2.00;;;;;12.55;62.54;100807.41;4973958;28;45507;-85
2021/11/04 12:46:18;;;;;;;;;5.33;1.00;;;;;12.73;62.90;100803.72;4974423;28;45490;-86
2021/11/04 12:48:46;;;;;;;;;3.00;1.00;;;;;12.88;61.49;100805.13;4959693;28;45409;-88
2021/11/04 12:51:13;;;;;;;;;1.00;1.00;;;;;12.97;61.61;100808.06;4966423;28;45907;-86
2021/11/04 12:53:59;;;;;;;;;0.67;0.67;;;;;13.10;61.13;100812.06;4957830;28;45426;-86
2021/11/04 12:56:54;;;;;;;;;2.33;2.33;;;;;13.22;60.44;100814.22;4955921;28;46099;-86
2021/11/04 12:59:39;;;;;;;;;1.00;1.00;;;;;13.30;59.72;100825.03;4973245;28;45345;-86
2021/11/04 13:02:04;;;;;;;;;2.33;1.33;;;;;13.25;59.44;100824.88;4964541;28;45571;-87
2021/11/04 13:04:31;;;;;;;;;1.00;1.00;;;;;13.22;59.43;100832.66;4954473;28;45666;-86
2021/11/04 13:06:57;;;;;;;;;0.67;0.67;;;;;13.16;59.33;100822.81;4968222;28;45436;-87
2021/11/04 13:09:23;;;;;;;;;1.00;1.00;;;;;13.13;58.85;100830.63;4952929;28;47005;-86
2021/11/04 13:12:05;;;;;;;;;0.00;0.00;;;;;13.10;59.29;100830.50;4974993;28;45489;-85
2021/11/04 13:14:48;;;;;;;;;2.00;1.67;;;;;13.13;58.88;100837.63;4944168;28;46575;-85
2021/11/04 13:17:13;;;;;;;;;0.33;0.33;;;;;13.10;58.92;100833.13;4968042;28;45436;-88
2021/11/04 13:19:41;;;;;;;;;1.00;1.00;;;;;13.04;58.85;100840.84;4971865;28;45318;-86
2021/11/04 13:22:06;;;;;;;;;0.00;0.00;;;;;13.01;59.62;100843.34;4951081;28;45750;-85
2021/11/04 13:24:31;;;;;;;;;1.00;1.00;;;;;13.02;59.07;100840.75;4955869;28;46340;-85
2021/11/04 13:26:57;;;;;;;;;0.00;0.00;;;;;12.89;58.38;100836.78;4975440;28;73258;-85
2021/11/04 13:29:22;;;;;;;;;1.00;0.00;;;;;12.81;58.52;100860.19;4938917;28;68426;-85
2021/11/04 13:31:48;;;;;;;;;1.00;1.00;;;;;12.69;59.11;100854.47;4967645;28;69252;-85
2021/11/04 13:34:18;;;;;;;;;1.00;1.00;;;;;12.65;59.25;100857.81;4966121;28;56722;-85
2021/11/04 13:36:43;;;;;;;;;0.67;0.67;;;;;12.69;59.23;100865.00;4983703;28;45823;-85
2021/11/04 13:39:12;;;;;;;;;1.00;0.00;;;;;12.73;59.35;100864.28;4956823;28;60958;-85
2021/11/04 13:41:39;;;;;;;;;0.00;0.00;;;;;12.84;59.34;100862.94;4972745;28;45526;-85
2021/11/04 13:44:25;;;;;;;;;3.00;1.67;;;;;12.91;59.15;100860.56;4955580;28;46625;-85
2021/11/04 13:46:51;;;;;;;;;0.00;0.00;;;;;12.92;59.03;100865.88;4969955;28;45378;-86
2021/11/04 13:49:17;;;;;;;;;1.00;0.67;;;;;12.93;58.68;100866.78;4963946;28;55294;-86
2021/11/04 13:52:01;;;;;;;;;3.00;2.00;;;;;12.95;59.20;100879.16;4961501;28;45390;-85
2021/11/04 13:54:28;;;;;;;;;1.00;1.00;;;;;12.90;59.43;100877.19;4971355;28;45451;-83
2021/11/04 13:56:56;;;;;;;;;1.33;0.33;;;;;12.80;58.18;100884.75;4974185;28;45486;-83
2021/11/04 13:59:56;;;;;;;;;1.00;1.00;;;;;12.62;59.06;100883.19;4951401;28;45601;-84
2021/11/04 14:02:23;;;;;;;;;3.67;3.00;;;;;12.51;59.38;100882.78;4928035;28;45643;-83
2021/11/04 14:04:53;;;;;;;;;1.67;1.00;;;;;12.44;59.90;100883.38;4955305;28;46615;-82
2021/11/04 14:07:29;;;;;;;;;2.33;2.33;;;;;12.48;60.40;100887.00;4943308;28;45669;-84
2021/11/04 14:09:56;;;;;;;;;5.33;5.33;;;;;12.60;58.87;100884.84;4970116;28;45345;-86
2021/11/04 14:12:25;;;;;;;;;2.00;2.00;;;;;12.70;59.87;100882.59;4979793;28;45752;-85
2021/11/04 14:14:50;;;;;;;;;2.33;2.33;;;;;12.74;59.15;100889.78;4947019;28;46306;-85
2021/11/04 14:17:23;;;;;;;;;1.33;1.33;;;;;12.66;59.24;100891.19;4965897;28;45981;-85
2021/11/04 14:19:48;;;;;;;;;3.00;3.00;;;;;12.57;59.31;100889.13;4934101;28;45686;-85
2021/11/04 14:22:14;;;;;;;;;1.33;1.33;;;;;12.52;58.91;100892.44;4968277;28;65611;-85
2021/11/04 14:24:40;;;;;;;;;3.00;2.00;;;;;12.47;60.26;100895.75;4961453;28;46483;-84
2021/11/04 14:27:05;;;;;;;;;2.33;2.33;;;;;12.48;60.34;100894.91;4971091;28;45765;-85
2021/11/04 14:29:31;;;;;;;;;1.00;1.00;;;;;12.60;59.93;100898.03;4937636;28;45660;-85
2021/11/04 14:31:57;;;;;;;;;2.33;1.67;;;;;12.73;59.74;100901.16;4945235;28;45476;-85
2021/11/04 14:34:23;;;;;;;;;1.00;1.00;;;;;12.90;58.95;100901.81;4969729;28;46687;-84
2021/11/04 14:36:49;;;;;;;;;2.00;1.00;;;;;12.92;59.03;100891.31;4953832;28;45558;-85
2021/11/04 14:39:15;;;;;;;;;2.00;2.00;;;;;12.96;59.55;100899.38;4968495;28;45501;-85
2021/11/04 14:41:41;;;;;;;;;1.00;1.00;;;;;12.92;58.97;100908.03;4945009;28;45473;-85
2021/11/04 14:44:06;;;;;;;;;2.33;2.33;;;;;12.85;57.96;100896.38;4940049;28;72028;-86
2021/11/04 14:46:32;;;;;;;;;2.00;1.33;;;;;12.84;59.12;100899.81;4965291;28;53267;-85
2021/11/04 14:48:57;;;;;;;;;3.00;2.67;;;;;12.90;59.27;100916.72;4958074;28;45492;-85
2021/11/04 14:51:23;;;;;;;;;4.00;4.00;;;;;12.83;59.17;100913.81;4953463;28;45549;-86
2021/11/04 14:53:48;;;;;;;;;9.00;8.00;;;;;12.72;58.96;100916.06;4967824;28;70900;-85
2021/11/04 14:56:13;;;;;;;;;1.67;1.67;;;;;12.55;59.48;100906.59;4959080;28;66691;-85
2021/11/04 14:58:39;;;;;;;;;1.00;1.00;;;;;12.55;59.71;100925.03;4972135;28;45691;-85
2021/11/04 15:01:04;;;;;;;;;4.00;2.00;;;;;12.46;59.30;100928.19;4964748;28;59571;-82
2021/11/04 15:03:30;;;;;;;;;7.00;4.00;;;;;12.37;60.21;100929.59;4978279;28;46499;-82
2021/11/04 15:05:55;;;;;;;;;12.67;9.67;;;;;12.27;59.98;100922.16;4977865;28;45350;-83
2021/11/04 15:08:22;;;;;;;;;7.33;7.33;;;;;12.24;60.47;100932.56;4975612;28;45481;-85
2021/11/04 15:10:48;;;;;;;;;12.33;12.33;;;;;12.17;60.51;100929.69;4988202;28;51848;-84
2021/11/04 15:13:13;;;;;;;;;8.00;5.33;;;;;12.11;60.52;100932.00;4948623;28;45575;-84
2021/11/04 15:15:39;;;;;;;;;7.00;5.33;;;;;12.04;60.93;100927.31;4969867;28;70410;-84
2021/11/04 15:18:04;;;;;;;;;4.67;4.67;;;;;11.98;61.92;100941.13;4971942;28;45464;-84
2021/11/04 15:20:29;;;;;;;;;3.00;3.00;;;;;11.92;61.56;100940.84;4969097;28;56991;-85
2021/11/04 15:22:55;;;;;;;;;1.00;1.00;;;;;11.94;61.56;100941.81;4970965;28;73205;-84
2021/11/04 15:25:20;;;;;;;;;2.00;2.00;;;;;11.95;62.44;100944.53;4932701;28;45556;-85
2021/11/04 15:27:46;;;;;;;;;2.00;1.00;;;;;11.92;62.89;100954.00;4979607;28;45516;-86
2021/11/04 15:30:11;;;;;;;;;1.00;1.00;;;;;11.93;62.56;100959.31;4954572;28;45834;-87
2021/11/04 15:32:37;;;;;;;;;3.67;3.00;;;;;11.84;62.80;100954.59;4971444;28;63467;-88
2021/11/04 15:35:02;;;;;;;;;3.00;2.00;;;;;11.75;63.15;100954.16;4969374;28;57745;-88
2021/11/04 15:37:28;;;;;;;;;1.00;1.00;;;;;11.71;63.30;100966.28;4945509;28;45421;-88
2021/11/04 15:39:53;;;;;;;;;1.67;1.00;;;;;11.58;63.33;100964.84;4956750;28;65096;-88
2021/11/04 15:42:19;;;;;;;;;1.33;1.00;;;;;11.56;63.95;100974.41;4955005;28;48265;-88
2021/11/04 15:44:44;;;;;;;;;1.00;1.00;;;;;11.51;63.85;100982.09;4959981;28;46533;-89
2021/11/04 15:47:10;;;;;;;;;0.33;0.33;;;;;11.42;63.92;100972.84;4964451;28;48417;-89
2021/11/04 15:49:38;;;;;;;;;1.67;1.67;;;;;11.37;64.71;100977.91;4922190;28;45581;-89
2021/11/04 15:52:03;;;;;;;;;2.67;2.67;;;;;11.33;65.05;100990.03;4950009;28;47199;-90
2021/11/04 15:54:29;;;;;;;;;3.00;2.00;;;;;11.26;65.02;100988.81;4945284;28;45397;-90
2021/11/04 15:56:54;;;;;;;;;2.00;1.00;;;;;11.18;65.34;100995.47;4943817;28;45485;-87
2021/11/04 15:59:19;;;;;;;;;1.67;1.67;;;;;11.18;65.58;101000.72;4945892;28;69449;-87
2021/11/04 16:01:45;;;;;;;;;3.00;2.00;;;;;11.14;66.31;101017.16;4970812;28;71842;-87
2021/11/04 16:04:10;;;;;;;;;3.67;2.67;;;;;11.08;65.61;101027.38;4956508;28;62878;-87
2021/11/04 16:06:40;;;;;;;;;2.33;1.67;;;;;11.00;66.10;101022.69;4949529;28;61191;-85
2021/11/04 16:09:07;;;;;;;;;2.00;0.67;;;;;10.98;65.96;101026.06;4967216;28;45335;-86
2021/11/04 16:11:32;;;;;;;;;1.00;1.00;;;;;10.90;66.13;101028.31;4944408;28;46591;-85
2021/11/04 16:13:58;;;;;;;;;0.00;0.00;;;;;10.77;65.66;101032.06;4951094;28;45516;-84
2021/11/04 16:16:23;;;;;;;;;0.00;0.00;;;;;10.67;66.89;101028.94;4948023;28;45640;-84
2021/11/04 16:18:49;;;;;;;;;0.67;0.00;;;;;10.68;67.10;101049.16;4964926;28;45604;-84
2021/11/04 16:21:14;;;;;;;;;1.67;1.00;;;;;10.63;67.81;101048.00;4960799;28;46276;-84
2021/11/04 16:23:40;;;;;;;;;0.00;0.00;;;;;10.65;67.44;101053.34;4953308;28;45572;-84
2021/11/04 16:26:05;;;;;;;;;1.00;1.00;;;;;10.66;67.79;101045.56;4974656;28;66409;-84
2021/11/04 16:28:30;;;;;;;;;1.33;1.33;;;;;10.67;67.92;101049.97;4968058;28;60693;-85
2021/11/04 16:30:56;;;;;;;;;3.00;3.00;;;;;10.63;68.24;101045.38;4967059;28;45612;-84
2021/11/04 16:33:21;;;;;;;;;2.33;2.33;;;;;10.63;68.38;101065.47;4966698;28;64439;-84
2021/11/04 16:35:46;;;;;;;;;3.00;2.67;;;;;10.63;68.62;101055.88;4949820;28;63955;-84